createdAt,value
2019-02-12T00:02:13.500Z,87.47
2019-02-12T00:04:42.284Z,88.09
2019-02-12T00:07:11.069Z,87.40
2019-02-12T00:09:39.901Z,87.75
2019-02-12T00:12:08.659Z,87.54
2019-02-12T00:14:38.031Z,87.60
2019-02-12T00:17:07.802Z,87.97
2019-02-12T00:19:36.891Z,88.23
2019-02-12T00:22:05.716Z,88.13
2019-02-12T00:24:34.478Z,88.43
2019-02-12T00:27:03.924Z,88.46
2019-02-12T00:29:32.745Z,88.12
2019-02-12T00:32:01.550Z,88.87
2019-02-12T00:34:31.662Z,89.07
2019-02-12T00:37:00.643Z,88.12
2019-02-12T00:39:29.418Z,88.64
2019-02-12T00:42:00.215Z,88.80
2019-02-12T00:44:29.031Z,88.64
2019-02-12T00:46:57.855Z,89.29
2019-02-12T00:49:26.714Z,88.88
2019-02-12T00:51:55.534Z,88.11
2019-02-12T00:54:24.367Z,88.51
2019-02-12T00:56:53.246Z,89.00
2019-02-12T00:59:22.036Z,88.00
2019-02-12T01:01:51.820Z,88.24
2019-02-12T01:04:21.796Z,89.38
2019-02-12T01:06:50.600Z,89.20
2019-02-12T01:09:19.367Z,88.59
2019-02-12T01:11:49.992Z,88.73
2019-02-12T01:14:18.806Z,89.15
2019-02-12T01:16:48.052Z,89.51
2019-02-12T01:19:16.912Z,89.87
2019-02-12T01:21:45.654Z,89.09
2019-02-12T01:24:14.493Z,89.68
2019-02-12T01:26:43.252Z,88.97
2019-02-12T01:29:12.990Z,88.51
2019-02-12T01:31:41.862Z,88.97
2019-02-12T01:34:10.625Z,88.89
2019-02-12T01:36:39.391Z,88.87
2019-02-12T01:39:11.759Z,89.00
2019-02-12T01:41:40.588Z,89.12
2019-02-12T01:44:09.768Z,89.06
2019-02-12T01:46:38.649Z,89.44
2019-02-12T01:49:07.423Z,90.14
2019-02-12T01:51:36.255Z,89.77
2019-02-12T01:54:05.034Z,90.17
2019-02-12T01:56:33.856Z,89.75
2019-02-12T01:59:02.723Z,89.73
2019-02-12T02:01:31.496Z,89.23
2019-02-12T02:04:00.255Z,90.15
2019-02-12T02:06:29.242Z,89.75
2019-02-12T02:08:58.160Z,90.62
2019-02-12T02:11:28.059Z,90.16
2019-02-12T02:13:57.255Z,90.56
2019-02-12T02:16:26.217Z,89.81
2019-02-12T02:18:54.959Z,89.82
2019-02-12T02:21:23.810Z,90.66
2019-02-12T02:23:53.127Z,90.78
2019-02-12T02:26:21.945Z,90.71
2019-02-12T02:28:50.737Z,90.98
2019-02-12T02:31:19.603Z,90.55
2019-02-12T02:33:48.407Z,91.10
2019-02-12T02:36:19.451Z,90.62
2019-02-12T02:38:48.343Z,90.72
2019-02-12T02:41:17.176Z,91.00
2019-02-12T02:43:45.968Z,90.21
2019-02-12T02:46:15.512Z,91.43
2019-02-12T02:48:45.432Z,91.43
2019-02-12T02:51:14.287Z,90.44
2019-02-12T02:53:43.739Z,90.30
2019-02-12T02:56:12.528Z,90.86
2019-02-12T02:58:41.363Z,91.10
2019-02-12T03:01:10.151Z,90.94
2019-02-12T03:03:38.917Z,90.51
2019-02-12T03:06:07.684Z,90.49
2019-02-12T03:08:37.703Z,91.32
2019-02-12T03:11:06.476Z,90.62
2019-02-12T03:13:37.108Z,91.50
2019-02-12T03:16:06.363Z,91.13
2019-02-12T03:18:35.154Z,91.38
2019-02-12T03:21:03.992Z,90.87
2019-02-12T03:23:32.864Z,91.74
2019-02-12T03:26:02.937Z,91.18
2019-02-12T03:28:31.678Z,91.46
2019-02-12T03:31:00.550Z,91.42
2019-02-12T03:33:29.309Z,91.04
2019-02-12T03:35:58.499Z,91.41
2019-02-12T03:38:27.558Z,91.34
2019-02-12T03:40:56.339Z,91.82
2019-02-12T03:43:25.110Z,91.60
2019-02-12T03:45:54.174Z,91.66
2019-02-12T03:48:24.379Z,91.89
2019-02-12T03:50:54.437Z,91.50
2019-02-12T03:53:23.228Z,90.80
2019-02-12T03:55:54.495Z,91.85
2019-02-12T03:58:23.287Z,91.45
2019-02-12T04:00:52.707Z,91.75
2019-02-12T04:03:21.474Z,91.29
2019-02-12T04:05:50.914Z,91.55
2019-02-12T04:08:20.258Z,91.34
2019-02-12T04:10:51.496Z,91.60
2019-02-12T04:13:20.288Z,91.71
2019-02-12T04:15:49.130Z,91.64
2019-02-12T04:18:18.477Z,91.45
2019-02-12T04:20:47.975Z,91.83
2019-02-12T04:23:16.860Z,92.37
2019-02-12T04:25:45.650Z,92.01
2019-02-12T04:28:14.424Z,91.89
2019-02-12T04:30:43.195Z,91.73
2019-02-12T04:33:11.994Z,91.54
2019-02-12T04:35:40.804Z,91.42
2019-02-12T04:38:09.643Z,92.13
2019-02-12T04:40:38.443Z,91.20
2019-02-12T04:43:07.260Z,91.66
2019-02-12T04:45:36.068Z,91.09
2019-02-12T04:48:04.963Z,91.50
2019-02-12T04:50:34.994Z,91.48
2019-02-12T04:53:03.789Z,92.08
2019-02-12T04:55:33.852Z,92.04
2019-02-12T04:58:02.637Z,91.64
2019-02-12T05:00:31.400Z,91.18
2019-02-12T05:03:00.235Z,90.95
2019-02-12T05:05:29.832Z,91.69
2019-02-12T05:07:59.151Z,91.07
2019-02-12T05:10:30.952Z,92.31
2019-02-12T05:12:59.759Z,91.69
2019-02-12T05:15:28.531Z,91.75
2019-02-12T05:17:57.878Z,91.67
2019-02-12T05:20:26.652Z,91.73
2019-02-12T05:22:55.419Z,91.38
2019-02-12T05:25:24.197Z,91.40
2019-02-12T05:27:53.227Z,90.70
2019-02-12T05:30:23.644Z,91.21
2019-02-12T05:32:53.071Z,91.04
2019-02-12T05:35:22.949Z,91.01
2019-02-12T05:37:54.467Z,91.27
2019-02-12T05:40:24.053Z,90.71
2019-02-12T05:42:52.897Z,90.63
2019-02-12T05:45:22.131Z,91.07
2019-02-12T05:47:50.958Z,90.03
2019-02-12T05:50:20.754Z,90.64
2019-02-12T05:52:54.443Z,90.61
2019-02-12T05:55:18.327Z,90.79
2019-02-12T05:57:47.161Z,91.61
2019-02-12T06:00:16.711Z,91.29
2019-02-12T06:02:45.548Z,91.18
2019-02-12T06:05:24.963Z,90.99
2019-02-12T06:07:53.796Z,90.47
2019-02-12T06:10:22.599Z,90.31
2019-02-12T06:12:52.420Z,90.68
2019-02-12T06:15:21.329Z,90.35
2019-02-12T06:17:50.143Z,90.65
2019-02-12T06:20:19.709Z,90.47
2019-02-12T06:22:48.504Z,90.41
2019-02-12T06:25:17.889Z,90.28
2019-02-12T06:27:46.587Z,89.83
2019-02-12T06:30:15.363Z,89.69
2019-02-12T06:32:44.554Z,90.51
2019-02-12T06:35:13.383Z,89.91
2019-02-12T06:37:42.305Z,90.62
2019-02-12T06:40:12.466Z,89.95
2019-02-12T06:42:41.783Z,89.56
2019-02-12T06:45:10.661Z,89.66
2019-02-12T06:47:40.307Z,89.53
2019-02-12T06:50:09.966Z,89.61
2019-02-12T06:52:39.384Z,90.06
2019-02-12T06:55:08.499Z,89.81
2019-02-12T06:57:37.355Z,90.61
2019-02-12T07:00:07.138Z,89.97
2019-02-12T07:02:47.206Z,90.65
2019-02-12T07:05:16.075Z,90.57
2019-02-12T07:07:56.734Z,90.40
2019-02-12T07:10:29.979Z,90.27
2019-02-12T07:13:40.406Z,90.60
2019-02-12T07:16:24.363Z,89.91
2019-02-12T07:19:16.740Z,90.51
2019-02-12T07:22:05.478Z,90.67
2019-02-12T07:24:50.494Z,90.53
2019-02-12T07:27:41.881Z,90.53
2019-02-12T07:30:36.036Z,90.68
2019-02-12T07:33:14.290Z,90.30
2019-02-12T07:36:14.999Z,89.76
2019-02-12T07:38:59.740Z,89.97
2019-02-12T07:41:45.663Z,89.73
2019-02-12T07:44:27.932Z,89.24
2019-02-12T07:47:13.234Z,89.31
2019-02-12T07:49:53.098Z,89.06
2019-02-12T07:52:33.796Z,88.58
2019-02-12T07:55:43.215Z,88.68
2019-02-12T07:59:24.325Z,88.21
2019-02-12T08:02:11.095Z,88.19
2019-02-12T08:05:57.770Z,87.97
2019-02-12T08:08:40.919Z,87.45
2019-02-12T08:11:31.736Z,87.41
2019-02-12T08:15:12.214Z,87.59
2019-02-12T08:17:56.908Z,87.84
2019-02-12T08:21:35.740Z,88.11
2019-02-12T08:24:16.062Z,87.92
2019-02-12T08:26:59.220Z,88.21
2019-02-12T08:29:42.574Z,88.51
2019-02-12T08:32:20.416Z,88.06
2019-02-12T08:34:59.876Z,87.90
2019-02-12T08:38:09.735Z,87.93
2019-02-12T08:40:55.584Z,88.26
2019-02-12T08:43:33.490Z,88.17
2019-02-12T08:47:11.265Z,87.82
2019-02-12T08:52:48.329Z,88.29
2019-02-12T08:55:28.582Z,87.80
2019-02-12T09:00:14.483Z,88.12
2019-02-12T09:02:52.695Z,87.99
2019-02-12T09:07:36.779Z,88.12
2019-02-12T09:10:26.549Z,87.33
2019-02-12T09:13:15.243Z,87.84
2019-02-12T09:16:03.212Z,87.92
2019-02-12T09:18:48.477Z,87.16
2019-02-12T09:21:31.201Z,87.76
2019-02-12T09:24:28.947Z,87.63
2019-02-12T09:27:09.914Z,87.63
2019-02-12T09:29:51.061Z,87.09
2019-02-12T09:34:36.819Z,87.38
2019-02-12T09:39:52.986Z,87.00
2019-02-12T09:42:35.777Z,86.01
2019-02-12T09:46:23.760Z,86.54
2019-02-12T09:49:02.083Z,86.55
2019-02-12T09:51:46.062Z,86.27
2019-02-12T09:54:37.621Z,86.50
2019-02-12T09:57:29.975Z,85.98
2019-02-12T10:00:22.904Z,85.46
2019-02-12T10:03:24.043Z,84.79
2019-02-12T10:06:06.695Z,85.03
2019-02-12T10:08:49.435Z,84.74
2019-02-12T10:12:00.154Z,84.40
2019-02-12T10:15:18.766Z,84.61
2019-02-12T10:18:00.774Z,84.17
2019-02-12T10:20:37.686Z,84.15
2019-02-12T10:28:15.871Z,84.56
2019-02-12T10:30:52.631Z,83.70
2019-02-12T10:33:22.485Z,83.69
2019-02-12T10:35:51.252Z,84.02
2019-02-12T10:38:20.913Z,83.92
2019-02-12T10:40:50.763Z,83.66
2019-02-12T10:43:20.539Z,83.87
2019-02-12T10:45:49.362Z,83.40
2019-02-12T10:48:18.897Z,83.26
2019-02-12T10:50:47.745Z,83.25
2019-02-12T10:53:32.288Z,83.39
2019-02-12T10:56:01.818Z,83.07
2019-02-12T10:58:30.798Z,82.92
2019-02-12T11:00:59.702Z,83.08
2019-02-12T11:03:28.963Z,82.72
2019-02-12T11:05:57.988Z,82.56
2019-02-12T11:08:26.800Z,82.09
2019-02-12T11:10:56.176Z,81.93
2019-02-12T11:13:25.044Z,81.83
2019-02-12T11:15:54.568Z,82.04
2019-02-12T11:18:23.582Z,81.71
2019-02-12T11:20:53.988Z,81.71
2019-02-12T11:23:23.020Z,81.51
2019-02-12T11:25:52.839Z,81.55
2019-02-12T11:28:21.676Z,81.06
2019-02-12T11:30:53.527Z,81.44
2019-02-12T11:33:22.366Z,82.40
2019-02-12T11:35:52.826Z,81.44
2019-02-12T11:38:24.955Z,80.25
2019-02-12T11:40:55.172Z,80.23
2019-02-12T11:43:25.750Z,79.49
2019-02-12T11:45:57.374Z,79.25
2019-02-12T11:48:26.278Z,78.79
2019-02-12T11:50:55.340Z,78.87
2019-02-12T11:53:24.609Z,78.51
2019-02-12T11:55:54.008Z,79.00
2019-02-12T11:58:22.842Z,79.54
2019-02-12T12:00:55.770Z,79.30
2019-02-12T12:03:24.589Z,78.84
2019-02-12T12:05:54.457Z,78.50
2019-02-12T12:08:23.930Z,77.60
2019-02-12T12:10:52.749Z,77.19
2019-02-12T12:13:22.210Z,76.29
2019-02-12T12:15:51.827Z,75.13
2019-02-12T12:18:20.614Z,74.58
2019-02-12T12:20:49.548Z,74.61
2019-02-12T12:23:18.443Z,73.81
2019-02-12T12:25:47.330Z,72.38
2019-02-12T12:28:16.352Z,72.79
2019-02-12T12:30:45.213Z,72.63
2019-02-12T12:33:14.034Z,72.22
2019-02-12T12:35:44.635Z,71.72
2019-02-12T12:38:13.429Z,72.09
2019-02-12T12:40:43.034Z,70.65
2019-02-12T12:43:12.687Z,69.53
2019-02-12T12:45:43.196Z,69.78
2019-02-12T12:48:12.684Z,69.41
2019-02-12T12:50:41.619Z,69.44
2019-02-12T12:53:10.538Z,68.75
2019-02-12T12:55:39.311Z,68.72
2019-02-12T12:58:08.161Z,68.56
2019-02-12T13:00:37.638Z,68.12
2019-02-12T13:03:08.474Z,67.86
2019-02-12T13:05:37.341Z,67.60
2019-02-12T13:08:06.139Z,66.97
2019-02-12T13:10:35.024Z,67.35
2019-02-12T13:13:04.811Z,66.84
2019-02-12T13:15:32.781Z,66.42
2019-02-12T13:18:02.257Z,67.02
2019-02-12T13:20:30.383Z,66.42
2019-02-12T13:22:59.272Z,65.75
2019-02-12T13:25:28.083Z,66.11
2019-02-12T13:27:57.000Z,66.18
2019-02-12T13:30:29.843Z,65.66
2019-02-12T13:33:16.738Z,65.63
2019-02-12T13:35:49.215Z,66.53
2019-02-12T13:38:21.868Z,66.01
2019-02-12T13:40:51.403Z,66.06
2019-02-12T13:43:20.250Z,65.46
2019-02-12T13:45:49.142Z,65.08
2019-02-12T13:48:18.195Z,65.88
2019-02-12T13:50:47.017Z,64.60
2019-02-12T13:53:17.261Z,65.15
2019-02-12T13:55:46.095Z,65.20
2019-02-12T13:58:15.078Z,65.65
2019-02-12T14:00:44.184Z,65.61
2019-02-12T14:03:13.023Z,65.85
2019-02-12T14:05:42.182Z,66.21
2019-02-12T14:08:10.823Z,65.77
2019-02-12T14:10:39.897Z,66.22
2019-02-12T14:13:08.767Z,65.93
2019-02-12T14:15:37.562Z,66.63
2019-02-12T14:18:06.367Z,66.22
2019-02-12T14:20:36.252Z,65.83
2019-02-12T14:23:06.335Z,66.91
2019-02-12T14:25:38.246Z,66.32
2019-02-12T14:28:07.459Z,66.65
2019-02-12T14:30:36.247Z,65.29
2019-02-12T14:33:05.131Z,64.88
2019-02-12T14:35:34.141Z,65.18
2019-02-12T14:38:03.155Z,64.91
2019-02-12T14:40:32.092Z,65.26
2019-02-12T14:43:00.910Z,64.68
2019-02-12T14:45:30.755Z,65.58
2019-02-12T14:48:00.138Z,65.50
2019-02-12T14:50:28.997Z,65.27
2019-02-12T14:52:58.106Z,65.09
2019-02-12T14:55:33.636Z,65.32
2019-02-12T14:57:57.818Z,65.71
2019-02-12T15:00:26.679Z,65.86
2019-02-12T15:02:55.616Z,65.57
2019-02-12T15:05:24.615Z,66.21
2019-02-12T15:07:53.578Z,66.29
2019-02-12T15:10:22.852Z,66.64
2019-02-12T15:12:51.748Z,66.82
2019-02-12T15:15:20.609Z,66.58
2019-02-12T15:17:49.496Z,66.68
2019-02-12T15:20:18.460Z,66.87
2019-02-12T15:22:47.955Z,67.18
2019-02-12T15:25:17.349Z,67.32
2019-02-12T15:27:46.799Z,67.01
2019-02-12T15:30:15.783Z,67.32
2019-02-12T15:32:45.715Z,67.39
2019-02-12T15:35:17.716Z,67.61
2019-02-12T15:37:47.495Z,67.54
2019-02-12T15:40:16.838Z,68.20
2019-02-12T15:42:45.925Z,68.01
2019-02-12T15:45:16.207Z,68.33
2019-02-12T15:47:46.163Z,68.67
2019-02-12T15:50:15.175Z,68.62
2019-02-12T15:52:43.990Z,69.10
2019-02-12T15:55:13.028Z,69.24
2019-02-12T15:57:45.285Z,69.27
2019-02-12T16:00:16.249Z,69.40
2019-02-12T16:02:44.419Z,69.79
2019-02-12T16:05:13.948Z,69.48
2019-02-12T16:07:44.689Z,69.51
2019-02-12T16:10:15.312Z,69.43
2019-02-12T16:12:46.533Z,69.90
2019-02-12T16:15:16.152Z,70.22
2019-02-12T16:17:45.028Z,70.58
2019-02-12T16:20:14.670Z,70.35
2019-02-12T16:22:44.061Z,70.62
2019-02-12T16:25:15.366Z,71.03
2019-02-12T16:27:45.405Z,71.10
2019-02-12T16:30:16.139Z,71.47
2019-02-12T16:32:44.957Z,71.60
2019-02-12T16:35:15.503Z,71.72
2019-02-12T16:37:45.663Z,71.97
2019-02-12T16:40:15.938Z,71.93
2019-02-12T16:42:44.731Z,72.30
2019-02-12T16:45:17.372Z,72.44
2019-02-12T16:47:46.149Z,72.83
2019-02-12T16:50:15.022Z,73.01
2019-02-12T16:52:43.856Z,73.09
2019-02-12T16:55:12.640Z,73.39
2019-02-12T16:57:41.553Z,73.77
2019-02-12T17:00:12.927Z,73.55
2019-02-12T17:02:41.780Z,73.79
2019-02-12T17:05:11.427Z,74.20
2019-02-12T17:07:41.231Z,74.70
2019-02-12T17:10:10.134Z,74.66
2019-02-12T17:12:38.920Z,74.64
2019-02-12T17:15:08.409Z,74.85
2019-02-12T17:17:37.190Z,75.59
2019-02-12T17:20:09.760Z,75.20
2019-02-12T17:22:38.570Z,75.77
2019-02-12T17:25:09.396Z,76.02
2019-02-12T17:27:38.344Z,75.74
2019-02-12T17:30:09.173Z,76.73
2019-02-12T17:32:38.019Z,76.31
2019-02-12T17:35:07.543Z,76.82
2019-02-12T17:37:37.979Z,76.93
2019-02-12T17:40:08.636Z,77.08
2019-02-12T17:42:37.459Z,76.79
2019-02-12T17:45:07.190Z,77.19
2019-02-12T17:47:35.966Z,77.26
2019-02-12T17:50:05.131Z,77.25
2019-02-12T17:52:33.995Z,77.43
2019-02-12T17:55:02.793Z,77.52
2019-02-12T17:57:33.447Z,77.79
2019-02-12T18:00:01.452Z,77.98
2019-02-12T18:02:30.264Z,77.91
2019-02-12T18:04:59.239Z,78.01
2019-02-12T18:07:28.119Z,78.49
2019-02-12T18:10:00.734Z,78.03
2019-02-12T18:12:30.343Z,78.20
2019-02-12T18:14:59.916Z,78.07
2019-02-12T18:17:28.771Z,78.76
2019-02-12T18:19:58.445Z,78.25
2019-02-12T18:22:28.216Z,79.02
2019-02-12T18:24:58.746Z,79.20
2019-02-12T18:27:27.616Z,79.53
2019-02-12T18:29:58.215Z,79.13
2019-02-12T18:32:26.988Z,79.50
2019-02-12T18:34:55.818Z,79.06
2019-02-12T18:37:24.678Z,79.23
2019-02-12T18:39:54.196Z,79.21
2019-02-12T18:42:23.031Z,79.52
2019-02-12T18:44:54.598Z,80.21
2019-02-12T18:47:25.904Z,79.67
2019-02-12T18:50:06.909Z,80.40
2019-02-12T18:52:40.233Z,79.94
2019-02-12T18:55:09.927Z,79.78
2019-02-12T18:57:38.902Z,80.83
2019-02-12T19:00:11.230Z,80.22
2019-02-12T19:02:41.299Z,80.91
2019-02-12T19:05:10.241Z,80.57
2019-02-12T19:07:42.909Z,80.94
2019-02-12T19:10:13.615Z,81.35
2019-02-12T19:12:43.861Z,81.41
2019-02-12T19:15:14.269Z,81.31
2019-02-12T19:17:45.260Z,81.31
2019-02-12T19:20:15.103Z,81.79
2019-02-12T19:22:44.031Z,81.53
2019-02-12T19:25:13.416Z,81.55
2019-02-12T19:27:42.243Z,81.73
2019-02-12T19:30:12.683Z,81.52
2019-02-12T19:32:42.970Z,81.50
2019-02-12T19:35:11.862Z,81.69
2019-02-12T19:37:43.719Z,81.83
2019-02-12T19:40:12.537Z,81.67
2019-02-12T19:42:41.393Z,82.27
2019-02-12T19:45:10.597Z,82.16
2019-02-12T19:47:40.306Z,82.62
2019-02-12T19:50:09.445Z,82.28
2019-02-12T19:52:38.362Z,82.08
2019-02-12T19:55:07.986Z,82.67
2019-02-12T19:57:36.874Z,82.38
2019-02-12T20:00:06.474Z,82.44
2019-02-12T20:02:35.365Z,82.89
2019-02-12T20:05:04.515Z,82.58
2019-02-12T20:07:33.384Z,82.38
2019-02-12T20:10:02.746Z,83.03
2019-02-12T20:12:33.075Z,82.61
2019-02-12T20:15:01.890Z,82.55
2019-02-12T20:17:30.754Z,82.85
2019-02-12T20:19:59.647Z,82.78
2019-02-12T20:22:28.522Z,83.09
2019-02-12T20:24:57.451Z,83.25
2019-02-12T20:27:26.431Z,83.28
2019-02-12T20:29:56.558Z,83.31
2019-02-12T20:32:25.751Z,83.70
2019-02-12T20:34:54.576Z,83.95
2019-02-12T20:37:23.520Z,84.05
2019-02-12T20:39:52.622Z,83.89
2019-02-12T20:42:21.542Z,83.95
2019-02-12T20:44:52.835Z,83.60
2019-02-12T20:47:21.779Z,83.14
2019-02-12T20:49:50.632Z,83.43
2019-02-12T20:52:19.515Z,83.24
2019-02-12T20:54:48.454Z,83.59
2019-02-12T20:57:17.263Z,83.91
2019-02-12T20:59:46.043Z,83.65
2019-02-12T21:02:14.992Z,83.31
2019-02-12T21:04:43.784Z,83.52
2019-02-12T21:07:12.639Z,83.16
2019-02-12T21:09:41.464Z,83.42
2019-02-12T21:12:10.383Z,83.74
2019-02-12T21:14:39.190Z,83.07
2019-02-12T21:17:08.146Z,83.62
2019-02-12T21:19:36.929Z,83.54
2019-02-12T21:22:05.831Z,83.20
2019-02-12T21:24:35.433Z,83.20
2019-02-12T21:27:04.298Z,83.84
2019-02-12T21:29:33.236Z,83.29
2019-02-12T21:32:02.140Z,83.87
2019-02-12T21:34:31.927Z,83.70
2019-02-12T21:37:00.884Z,83.79
2019-02-12T21:39:29.927Z,84.07
2019-02-12T21:41:58.723Z,83.59
2019-02-12T21:44:27.610Z,83.75
2019-02-12T21:46:57.083Z,83.92
2019-02-12T21:49:27.093Z,84.58
2019-02-12T21:51:55.990Z,84.24
2019-02-12T21:54:24.911Z,84.70
2019-02-12T21:56:54.567Z,84.49
2019-02-12T21:59:23.411Z,84.10
2019-02-12T22:01:52.200Z,84.78
2019-02-12T22:04:21.127Z,84.85
2019-02-12T22:06:50.064Z,84.23
2019-02-12T22:09:19.196Z,84.38
2019-02-12T22:11:48.071Z,84.33
2019-02-12T22:14:17.064Z,84.83
2019-02-12T22:16:45.914Z,84.89
2019-02-12T22:19:14.763Z,84.91
2019-02-12T22:21:43.618Z,84.95
2019-02-12T22:24:13.669Z,84.96
2019-02-12T22:26:43.732Z,85.05
2019-02-12T22:29:13.406Z,85.01
2019-02-12T22:31:42.314Z,85.50
2019-02-12T22:34:11.181Z,84.72
2019-02-12T22:36:40.012Z,85.03
2019-02-12T22:39:08.886Z,84.99
2019-02-12T22:41:37.775Z,84.96
2019-02-12T22:44:06.582Z,85.13
2019-02-12T22:46:35.429Z,85.32
2019-02-12T22:49:04.261Z,85.44
2019-02-12T22:51:33.040Z,85.61
2019-02-12T22:54:01.844Z,85.72
2019-02-12T22:56:30.667Z,85.52
2019-02-12T22:58:59.484Z,85.54
2019-02-12T23:01:33.428Z,85.94
2019-02-12T23:04:02.240Z,85.42
2019-02-12T23:06:31.126Z,85.45
2019-02-12T23:09:00.050Z,85.28
2019-02-12T23:11:28.809Z,85.70
2019-02-12T23:13:58.614Z,85.83
2019-02-12T23:16:29.250Z,85.74
2019-02-12T23:18:58.583Z,85.40
2019-02-12T23:21:27.528Z,85.72
2019-02-12T23:23:57.055Z,85.77
2019-02-12T23:26:25.920Z,85.92
2019-02-12T23:28:54.776Z,85.55
2019-02-12T23:31:23.613Z,85.88
2019-02-12T23:33:52.482Z,86.32
2019-02-12T23:36:21.266Z,85.65
2019-02-12T23:38:50.095Z,86.16
2019-02-12T23:41:18.979Z,85.85
2019-02-12T23:43:47.794Z,86.09
2019-02-12T23:46:16.959Z,86.47
2019-02-12T23:48:45.739Z,86.37
2019-02-12T23:51:14.706Z,86.26
2019-02-12T23:53:43.537Z,86.31
2019-02-12T23:56:12.390Z,86.12
2019-02-12T23:58:41.229Z,86.28
